Independent, Nebraska
Current Conditions -  °F | °C
As of 8:17 AM on Sunday 25 Jan 2015 (Local Time) from KODX Reporting Station
Overcast Overcast  
Wind Chill: 29°   Ceiling: 2600
Heat Index: 38°   Visibility: 10mi
Dew Point: 30°   Wind: 16mph
Humidity: 73%   Direction: 330°NNW
Pressure: 29.96"   Gusts: 26mph
Location:  41.4844°N, 98.8112°W
Report Text: KODX 251417Z AUTO 33014G23KT 10SM BKN026 OVC032 03/M01 A2996 RMK AO2 T00331011 $
Loading
Personal Weather Stations






























Interactive Weather Map New forecast layout! Learn more

10-Day Weather Forecast

Advertisements
Track Severe Weather on mobile